sensor_id;sensor_type;location;lat;lon;timestamp;P1;durP1;ratioP1;P2;durP2;ratioP2
33902;SDS011;20194;50.950;5.346;2023-02-11T00:01:23;48.15;;;20.58;;
33902;SDS011;20194;50.950;5.346;2023-02-11T00:03:51;48.65;;;21.27;;
33902;SDS011;20194;50.950;5.346;2023-02-11T00:06:17;50.33;;;20.50;;
33902;SDS011;20194;50.950;5.346;2023-02-11T00:08:43;51.25;;;20.73;;
33902;SDS011;20194;50.950;5.346;2023-02-11T00:11:11;44.25;;;20.58;;
33902;SDS011;20194;50.950;5.346;2023-02-11T00:13:44;44.40;;;19.90;;
33902;SDS011;20194;50.950;5.346;2023-02-11T00:16:12;50.45;;;19.50;;
33902;SDS011;20194;50.950;5.346;2023-02-11T00:18:39;40.50;;;19.48;;
33902;SDS011;20194;50.950;5.346;2023-02-11T00:21:09;51.35;;;21.50;;
33902;SDS011;20194;50.950;5.346;2023-02-11T00:23:42;47.83;;;20.52;;
33902;SDS011;20194;50.950;5.346;2023-02-11T00:26:16;45.00;;;21.30;;
33902;SDS011;20194;50.950;5.346;2023-02-11T00:28:43;45.50;;;20.02;;
33902;SDS011;20194;50.950;5.346;2023-02-11T00:31:10;43.42;;;19.67;;
33902;SDS011;20194;50.950;5.346;2023-02-11T00:33:37;40.13;;;19.95;;
33902;SDS011;20194;50.950;5.346;2023-02-11T00:36:04;43.30;;;20.25;;
33902;SDS011;20194;50.950;5.346;2023-02-11T00:38:34;56.28;;;19.13;;
33902;SDS011;20194;50.950;5.346;2023-02-11T00:41:00;42.75;;;19.27;;
33902;SDS011;20194;50.950;5.346;2023-02-11T00:43:25;44.97;;;19.40;;
33902;SDS011;20194;50.950;5.346;2023-02-11T00:45:51;46.47;;;19.05;;
33902;SDS011;20194;50.950;5.346;2023-02-11T00:48:17;43.95;;;18.58;;
33902;SDS011;20194;50.950;5.346;2023-02-11T00:50:43;45.75;;;17.80;;
33902;SDS011;20194;50.950;5.346;2023-02-11T00:53:09;39.05;;;17.92;;
33902;SDS011;20194;50.950;5.346;2023-02-11T00:55:35;38.78;;;18.25;;
33902;SDS011;20194;50.950;5.346;2023-02-11T00:58:01;38.00;;;18.20;;
33902;SDS011;20194;50.950;5.346;2023-02-11T01:00:27;38.25;;;16.67;;
33902;SDS011;20194;50.950;5.346;2023-02-11T01:02:53;41.05;;;18.20;;
33902;SDS011;20194;50.950;5.346;2023-02-11T01:05:19;50.13;;;20.20;;
33902;SDS011;20194;50.950;5.346;2023-02-11T01:07:45;37.65;;;17.27;;
33902;SDS011;20194;50.950;5.346;2023-02-11T01:10:13;35.97;;;17.10;;
33902;SDS011;20194;50.950;5.346;2023-02-11T01:12:39;36.83;;;16.33;;
33902;SDS011;20194;50.950;5.346;2023-02-11T01:15:06;36.75;;;15.98;;
33902;SDS011;20194;50.950;5.346;2023-02-11T01:17:33;34.67;;;15.50;;
33902;SDS011;20194;50.950;5.346;2023-02-11T01:20:04;34.17;;;15.18;;
33902;SDS011;20194;50.950;5.346;2023-02-11T01:22:31;33.53;;;14.15;;
33902;SDS011;20194;50.950;5.346;2023-02-11T01:24:58;39.22;;;15.45;;
33902;SDS011;20194;50.950;5.346;2023-02-11T01:27:24;34.75;;;14.32;;
33902;SDS011;20194;50.950;5.346;2023-02-11T01:29:50;41.72;;;15.40;;
33902;SDS011;20194;50.950;5.346;2023-02-11T01:32:15;33.50;;;13.90;;
33902;SDS011;20194;50.950;5.346;2023-02-11T01:34:41;33.00;;;15.32;;
33902;SDS011;20194;50.950;5.346;2023-02-11T01:37:07;42.67;;;15.52;;
33902;SDS011;20194;50.950;5.346;2023-02-11T01:39:33;36.60;;;14.75;;
33902;SDS011;20194;50.950;5.346;2023-02-11T01:41:59;31.20;;;14.48;;
33902;SDS011;20194;50.950;5.346;2023-02-11T01:44:27;31.27;;;14.55;;
33902;SDS011;20194;50.950;5.346;2023-02-11T01:46:54;36.90;;;13.73;;
33902;SDS011;20194;50.950;5.346;2023-02-11T01:49:22;38.35;;;15.25;;
33902;SDS011;20194;50.950;5.346;2023-02-11T01:51:50;27.70;;;13.82;;
33902;SDS011;20194;50.950;5.346;2023-02-11T01:54:23;30.05;;;13.25;;
33902;SDS011;20194;50.950;5.346;2023-02-11T01:57:12;40.67;;;14.48;;
33902;SDS011;20194;50.950;5.346;2023-02-11T02:05:04;29.40;;;13.52;;
33902;SDS011;20194;50.950;5.346;2023-02-11T02:07:33;30.77;;;13.10;;
33902;SDS011;20194;50.950;5.346;2023-02-11T02:10:08;36.75;;;14.00;;
33902;SDS011;20194;50.950;5.346;2023-02-11T02:12:39;34.97;;;14.50;;
33902;SDS011;20194;50.950;5.346;2023-02-11T02:15:19;29.15;;;12.88;;
33902;SDS011;20194;50.950;5.346;2023-02-11T02:23:24;29.92;;;11.95;;
33902;SDS011;20194;50.950;5.346;2023-02-11T02:26:08;41.72;;;13.30;;
33902;SDS011;20194;50.950;5.346;2023-02-11T02:31:58;40.10;;;15.85;;
33902;SDS011;20194;50.950;5.346;2023-02-11T02:34:51;35.42;;;12.55;;
33902;SDS011;20194;50.950;5.346;2023-02-11T02:37:27;33.42;;;12.15;;
33902;SDS011;20194;50.950;5.346;2023-02-11T02:39:58;26.50;;;12.23;;
33902;SDS011;20194;50.950;5.346;2023-02-11T02:42:31;28.42;;;12.18;;
33902;SDS011;20194;50.950;5.346;2023-02-11T02:44:57;37.92;;;13.25;;
33902;SDS011;20194;50.950;5.346;2023-02-11T02:47:23;33.20;;;12.35;;
33902;SDS011;20194;50.950;5.346;2023-02-11T02:49:49;30.23;;;11.85;;
33902;SDS011;20194;50.950;5.346;2023-02-11T02:52:23;28.70;;;12.40;;
33902;SDS011;20194;50.950;5.346;2023-02-11T02:55:15;33.25;;;12.18;;
33902;SDS011;20194;50.950;5.346;2023-02-11T03:06:02;28.65;;;11.43;;
33902;SDS011;20194;50.950;5.346;2023-02-11T03:11:23;32.38;;;11.38;;
33902;SDS011;20194;50.950;5.346;2023-02-11T03:13:50;29.15;;;10.60;;
33902;SDS011;20194;50.950;5.346;2023-02-11T03:16:19;35.38;;;12.57;;
33902;SDS011;20194;50.950;5.346;2023-02-11T03:19:25;28.75;;;12.73;;
33902;SDS011;20194;50.950;5.346;2023-02-11T03:24:27;27.13;;;11.40;;
33902;SDS011;20194;50.950;5.346;2023-02-11T03:30:05;30.73;;;11.02;;
33902;SDS011;20194;50.950;5.346;2023-02-11T03:32:51;28.10;;;11.13;;
33902;SDS011;20194;50.950;5.346;2023-02-11T03:35:22;27.38;;;11.13;;
33902;SDS011;20194;50.950;5.346;2023-02-11T03:37:54;26.70;;;11.35;;
33902;SDS011;20194;50.950;5.346;2023-02-11T03:40:26;23.83;;;11.10;;
33902;SDS011;20194;50.950;5.346;2023-02-11T03:42:57;24.95;;;11.50;;
33902;SDS011;20194;50.950;5.346;2023-02-11T03:45:25;36.80;;;12.52;;
33902;SDS011;20194;50.950;5.346;2023-02-11T03:48:08;31.00;;;11.63;;
33902;SDS011;20194;50.950;5.346;2023-02-11T03:50:38;27.05;;;11.70;;
33902;SDS011;20194;50.950;5.346;2023-02-11T03:53:05;19.73;;;10.27;;
33902;SDS011;20194;50.950;5.346;2023-02-11T03:55:34;29.50;;;10.63;;
33902;SDS011;20194;50.950;5.346;2023-02-11T03:58:03;25.73;;;10.73;;
33902;SDS011;20194;50.950;5.346;2023-02-11T04:00:33;28.88;;;10.73;;
33902;SDS011;20194;50.950;5.346;2023-02-11T04:03:01;27.38;;;11.48;;
33902;SDS011;20194;50.950;5.346;2023-02-11T04:05:27;24.73;;;10.18;;
33902;SDS011;20194;50.950;5.346;2023-02-11T04:07:53;30.42;;;11.40;;
33902;SDS011;20194;50.950;5.346;2023-02-11T04:10:19;30.48;;;10.80;;
33902;SDS011;20194;50.950;5.346;2023-02-11T04:12:45;27.65;;;11.63;;
33902;SDS011;20194;50.950;5.346;2023-02-11T04:15:10;33.03;;;10.50;;
33902;SDS011;20194;50.950;5.346;2023-02-11T04:17:36;27.33;;;11.20;;
33902;SDS011;20194;50.950;5.346;2023-02-11T04:20:03;30.13;;;11.18;;
33902;SDS011;20194;50.950;5.346;2023-02-11T04:22:29;29.42;;;10.82;;
33902;SDS011;20194;50.950;5.346;2023-02-11T04:24:55;31.00;;;10.80;;
33902;SDS011;20194;50.950;5.346;2023-02-11T04:27:21;33.00;;;12.38;;
33902;SDS011;20194;50.950;5.346;2023-02-11T04:29:46;35.72;;;11.13;;
33902;SDS011;20194;50.950;5.346;2023-02-11T04:32:12;30.80;;;9.95;;
33902;SDS011;20194;50.950;5.346;2023-02-11T04:34:38;30.55;;;10.90;;
33902;SDS011;20194;50.950;5.346;2023-02-11T04:37:04;35.40;;;10.77;;
33902;SDS011;20194;50.950;5.346;2023-02-11T04:39:30;26.25;;;11.05;;
33902;SDS011;20194;50.950;5.346;2023-02-11T04:41:56;26.00;;;11.18;;
33902;SDS011;20194;50.950;5.346;2023-02-11T04:44:21;32.40;;;12.60;;
33902;SDS011;20194;50.950;5.346;2023-02-11T04:46:48;30.65;;;11.25;;
33902;SDS011;20194;50.950;5.346;2023-02-11T04:49:14;38.70;;;12.38;;
33902;SDS011;20194;50.950;5.346;2023-02-11T04:51:41;50.58;;;12.57;;
33902;SDS011;20194;50.950;5.346;2023-02-11T04:54:08;32.38;;;12.15;;
33902;SDS011;20194;50.950;5.346;2023-02-11T04:56:34;34.70;;;12.73;;
33902;SDS011;20194;50.950;5.346;2023-02-11T04:59:00;41.33;;;12.57;;
33902;SDS011;20194;50.950;5.346;2023-02-11T05:01:26;30.83;;;12.32;;
33902;SDS011;20194;50.950;5.346;2023-02-11T05:03:52;31.30;;;11.95;;
33902;SDS011;20194;50.950;5.346;2023-02-11T05:06:18;28.23;;;11.50;;
33902;SDS011;20194;50.950;5.346;2023-02-11T05:08:43;38.38;;;12.00;;
33902;SDS011;20194;50.950;5.346;2023-02-11T05:11:16;34.67;;;12.82;;
33902;SDS011;20194;50.950;5.346;2023-02-11T05:13:44;29.52;;;11.45;;
33902;SDS011;20194;50.950;5.346;2023-02-11T05:16:11;32.45;;;11.15;;
33902;SDS011;20194;50.950;5.346;2023-02-11T05:18:37;30.15;;;11.88;;
33902;SDS011;20194;50.950;5.346;2023-02-11T05:21:07;37.40;;;11.93;;
33902;SDS011;20194;50.950;5.346;2023-02-11T05:23:34;27.08;;;11.85;;
33902;SDS011;20194;50.950;5.346;2023-02-11T05:26:00;36.15;;;12.15;;
33902;SDS011;20194;50.950;5.346;2023-02-11T05:28:27;32.83;;;14.10;;
33902;SDS011;20194;50.950;5.346;2023-02-11T05:30:53;36.67;;;13.43;;
33902;SDS011;20194;50.950;5.346;2023-02-11T05:33:19;39.35;;;13.88;;
33902;SDS011;20194;50.950;5.346;2023-02-11T05:35:45;45.95;;;14.85;;
33902;SDS011;20194;50.950;5.346;2023-02-11T05:38:11;37.38;;;14.02;;
33902;SDS011;20194;50.950;5.346;2023-02-11T05:40:38;33.13;;;13.85;;
33902;SDS011;20194;50.950;5.346;2023-02-11T05:43:03;32.15;;;13.00;;
33902;SDS011;20194;50.950;5.346;2023-02-11T05:45:29;39.78;;;14.63;;
33902;SDS011;20194;50.950;5.346;2023-02-11T05:47:55;43.85;;;14.38;;
33902;SDS011;20194;50.950;5.346;2023-02-11T05:50:22;42.35;;;13.43;;
33902;SDS011;20194;50.950;5.346;2023-02-11T05:52:48;40.22;;;14.35;;
33902;SDS011;20194;50.950;5.346;2023-02-11T05:55:14;39.00;;;15.68;;
33902;SDS011;20194;50.950;5.346;2023-02-11T05:57:39;39.63;;;13.90;;
33902;SDS011;20194;50.950;5.346;2023-02-11T06:00:06;44.45;;;14.77;;
33902;SDS011;20194;50.950;5.346;2023-02-11T06:02:32;49.80;;;17.45;;
33902;SDS011;20194;50.950;5.346;2023-02-11T06:04:58;46.42;;;17.27;;
33902;SDS011;20194;50.950;5.346;2023-02-11T06:07:24;37.45;;;15.23;;
33902;SDS011;20194;50.950;5.346;2023-02-11T06:09:50;41.70;;;15.48;;
33902;SDS011;20194;50.950;5.346;2023-02-11T06:12:16;40.88;;;16.48;;
33902;SDS011;20194;50.950;5.346;2023-02-11T06:14:42;38.85;;;15.43;;
33902;SDS011;20194;50.950;5.346;2023-02-11T06:17:07;34.60;;;15.60;;
33902;SDS011;20194;50.950;5.346;2023-02-11T06:19:34;37.72;;;16.10;;
33902;SDS011;20194;50.950;5.346;2023-02-11T06:21:59;37.53;;;16.75;;
33902;SDS011;20194;50.950;5.346;2023-02-11T06:24:25;38.88;;;15.93;;
33902;SDS011;20194;50.950;5.346;2023-02-11T06:26:51;44.63;;;16.85;;
33902;SDS011;20194;50.950;5.346;2023-02-11T06:29:17;36.85;;;16.17;;
33902;SDS011;20194;50.950;5.346;2023-02-11T06:31:43;37.90;;;17.38;;
33902;SDS011;20194;50.950;5.346;2023-02-11T06:34:08;37.83;;;16.55;;
33902;SDS011;20194;50.950;5.346;2023-02-11T06:36:35;47.63;;;17.85;;
33902;SDS011;20194;50.950;5.346;2023-02-11T06:39:02;38.15;;;15.23;;
33902;SDS011;20194;50.950;5.346;2023-02-11T06:41:29;41.67;;;17.20;;
33902;SDS011;20194;50.950;5.346;2023-02-11T06:43:55;36.03;;;16.23;;
33902;SDS011;20194;50.950;5.346;2023-02-11T06:46:20;43.20;;;16.83;;
33902;SDS011;20194;50.950;5.346;2023-02-11T06:48:47;47.05;;;18.55;;
33902;SDS011;20194;50.950;5.346;2023-02-11T06:51:13;44.80;;;17.60;;
33902;SDS011;20194;50.950;5.346;2023-02-11T06:53:42;36.25;;;16.95;;
33902;SDS011;20194;50.950;5.346;2023-02-11T06:56:11;40.17;;;17.95;;
33902;SDS011;20194;50.950;5.346;2023-02-11T06:58:39;50.88;;;18.40;;
33902;SDS011;20194;50.950;5.346;2023-02-11T07:01:06;51.40;;;18.67;;
33902;SDS011;20194;50.950;5.346;2023-02-11T07:03:37;42.08;;;17.80;;
33902;SDS011;20194;50.950;5.346;2023-02-11T07:06:04;51.45;;;18.35;;
33902;SDS011;20194;50.950;5.346;2023-02-11T07:08:32;48.95;;;17.23;;
33902;SDS011;20194;50.950;5.346;2023-02-11T07:10:58;38.80;;;17.40;;
33902;SDS011;20194;50.950;5.346;2023-02-11T07:13:24;42.75;;;18.23;;
33902;SDS011;20194;50.950;5.346;2023-02-11T07:15:50;50.45;;;18.58;;
33902;SDS011;20194;50.950;5.346;2023-02-11T07:18:15;59.17;;;22.38;;
33902;SDS011;20194;50.950;5.346;2023-02-11T07:20:41;49.13;;;19.15;;
33902;SDS011;20194;50.950;5.346;2023-02-11T07:23:07;48.53;;;19.48;;
33902;SDS011;20194;50.950;5.346;2023-02-11T07:25:34;49.00;;;19.42;;
33902;SDS011;20194;50.950;5.346;2023-02-11T07:28:00;58.70;;;23.92;;
33902;SDS011;20194;50.950;5.346;2023-02-11T07:30:27;44.67;;;18.38;;
33902;SDS011;20194;50.950;5.346;2023-02-11T07:32:53;52.50;;;20.23;;
33902;SDS011;20194;50.950;5.346;2023-02-11T07:35:20;44.75;;;19.40;;
33902;SDS011;20194;50.950;5.346;2023-02-11T07:37:45;51.92;;;19.33;;
33902;SDS011;20194;50.950;5.346;2023-02-11T07:40:11;57.25;;;20.58;;
33902;SDS011;20194;50.950;5.346;2023-02-11T07:42:37;54.03;;;20.77;;
33902;SDS011;20194;50.950;5.346;2023-02-11T07:45:05;47.08;;;19.60;;
33902;SDS011;20194;50.950;5.346;2023-02-11T07:47:31;54.40;;;21.05;;
33902;SDS011;20194;50.950;5.346;2023-02-11T07:49:58;48.72;;;20.55;;
33902;SDS011;20194;50.950;5.346;2023-02-11T07:52:24;48.15;;;20.67;;
33902;SDS011;20194;50.950;5.346;2023-02-11T07:54:53;59.38;;;23.30;;
33902;SDS011;20194;50.950;5.346;2023-02-11T07:57:18;66.53;;;22.55;;
33902;SDS011;20194;50.950;5.346;2023-02-11T07:59:44;49.55;;;21.48;;
33902;SDS011;20194;50.950;5.346;2023-02-11T08:02:10;59.63;;;21.30;;
33902;SDS011;20194;50.950;5.346;2023-02-11T08:04:35;62.85;;;25.92;;
33902;SDS011;20194;50.950;5.346;2023-02-11T08:07:02;58.88;;;24.15;;
33902;SDS011;20194;50.950;5.346;2023-02-11T08:09:27;67.90;;;23.83;;
33902;SDS011;20194;50.950;5.346;2023-02-11T08:11:53;62.50;;;24.60;;
33902;SDS011;20194;50.950;5.346;2023-02-11T08:14:19;76.35;;;26.10;;
33902;SDS011;20194;50.950;5.346;2023-02-11T08:16:45;61.90;;;25.30;;
33902;SDS011;20194;50.950;5.346;2023-02-11T08:19:12;67.07;;;24.60;;
33902;SDS011;20194;50.950;5.346;2023-02-11T08:21:39;68.95;;;22.23;;
33902;SDS011;20194;50.950;5.346;2023-02-11T08:24:05;65.45;;;26.00;;
33902;SDS011;20194;50.950;5.346;2023-02-11T08:26:32;75.70;;;29.52;;
33902;SDS011;20194;50.950;5.346;2023-02-11T08:28:59;78.88;;;28.92;;
33902;SDS011;20194;50.950;5.346;2023-02-11T08:31:27;87.22;;;37.03;;
33902;SDS011;20194;50.950;5.346;2023-02-11T08:33:55;69.93;;;26.83;;
33902;SDS011;20194;50.950;5.346;2023-02-11T08:36:25;75.13;;;26.98;;
33902;SDS011;20194;50.950;5.346;2023-02-11T08:38:53;74.85;;;27.73;;
33902;SDS011;20194;50.950;5.346;2023-02-11T08:41:20;86.32;;;33.33;;
33902;SDS011;20194;50.950;5.346;2023-02-11T08:43:46;90.78;;;33.45;;
33902;SDS011;20194;50.950;5.346;2023-02-11T08:46:14;89.72;;;34.17;;
33902;SDS011;20194;50.950;5.346;2023-02-11T08:48:42;83.78;;;32.50;;
33902;SDS011;20194;50.950;5.346;2023-02-11T08:51:09;98.68;;;33.78;;
33902;SDS011;20194;50.950;5.346;2023-02-11T08:53:38;103.38;;;37.88;;
33902;SDS011;20194;50.950;5.346;2023-02-11T08:56:04;105.38;;;40.00;;
33902;SDS011;20194;50.950;5.346;2023-02-11T08:58:30;92.63;;;33.35;;
33902;SDS011;20194;50.950;5.346;2023-02-11T09:00:57;76.35;;;29.77;;
33902;SDS011;20194;50.950;5.346;2023-02-11T09:03:22;78.97;;;30.00;;
33902;SDS011;20194;50.950;5.346;2023-02-11T09:05:48;71.07;;;27.55;;
33902;SDS011;20194;50.950;5.346;2023-02-11T09:08:17;73.75;;;28.85;;
33902;SDS011;20194;50.950;5.346;2023-02-11T09:10:43;69.28;;;27.17;;
33902;SDS011;20194;50.950;5.346;2023-02-11T09:13:09;80.45;;;27.67;;
33902;SDS011;20194;50.950;5.346;2023-02-11T09:15:35;70.63;;;28.50;;
33902;SDS011;20194;50.950;5.346;2023-02-11T09:18:01;72.22;;;29.38;;
33902;SDS011;20194;50.950;5.346;2023-02-11T09:20:27;71.57;;;27.80;;
33902;SDS011;20194;50.950;5.346;2023-02-11T09:22:53;76.30;;;28.02;;
33902;SDS011;20194;50.950;5.346;2023-02-11T09:25:22;77.38;;;28.05;;
33902;SDS011;20194;50.950;5.346;2023-02-11T09:27:47;80.28;;;30.50;;
33902;SDS011;20194;50.950;5.346;2023-02-11T09:30:15;76.30;;;26.90;;
33902;SDS011;20194;50.950;5.346;2023-02-11T09:32:41;67.43;;;25.98;;
33902;SDS011;20194;50.950;5.346;2023-02-11T09:35:06;66.65;;;26.50;;
33902;SDS011;20194;50.950;5.346;2023-02-11T09:37:32;78.22;;;27.92;;
33902;SDS011;20194;50.950;5.346;2023-02-11T09:39:58;84.43;;;28.80;;
33902;SDS011;20194;50.950;5.346;2023-02-11T09:45:13;84.13;;;27.98;;
33902;SDS011;20194;50.950;5.346;2023-02-11T09:47:47;76.65;;;28.70;;
33902;SDS011;20194;50.950;5.346;2023-02-11T09:50:23;78.95;;;29.50;;
33902;SDS011;20194;50.950;5.346;2023-02-11T09:53:03;80.90;;;28.95;;
33902;SDS011;20194;50.950;5.346;2023-02-11T09:55:37;72.70;;;29.15;;
33902;SDS011;20194;50.950;5.346;2023-02-11T09:58:10;70.15;;;27.05;;
33902;SDS011;20194;50.950;5.346;2023-02-11T10:14:52;81.72;;;28.75;;
33902;SDS011;20194;50.950;5.346;2023-02-11T10:20:45;77.35;;;27.90;;
33902;SDS011;20194;50.950;5.346;2023-02-11T10:23:12;87.47;;;29.13;;
33902;SDS011;20194;50.950;5.346;2023-02-11T10:25:45;78.15;;;28.77;;
33902;SDS011;20194;50.950;5.346;2023-02-11T10:28:19;80.60;;;28.30;;
33902;SDS011;20194;50.950;5.346;2023-02-11T10:30:53;89.97;;;29.23;;
33902;SDS011;20194;50.950;5.346;2023-02-11T10:33:29;84.43;;;29.52;;
33902;SDS011;20194;50.950;5.346;2023-02-11T10:35:56;90.28;;;29.77;;
33902;SDS011;20194;50.950;5.346;2023-02-11T10:38:22;90.20;;;30.10;;
33902;SDS011;20194;50.950;5.346;2023-02-11T10:40:48;86.80;;;31.13;;
33902;SDS011;20194;50.950;5.346;2023-02-11T10:43:15;86.00;;;30.02;;
33902;SDS011;20194;50.950;5.346;2023-02-11T10:45:48;83.70;;;30.48;;
33902;SDS011;20194;50.950;5.346;2023-02-11T10:51:06;97.72;;;31.92;;
33902;SDS011;20194;50.950;5.346;2023-02-11T10:53:34;93.88;;;33.85;;
33902;SDS011;20194;50.950;5.346;2023-02-11T10:56:00;103.78;;;36.92;;
33902;SDS011;20194;50.950;5.346;2023-02-11T10:58:29;114.05;;;40.00;;
33902;SDS011;20194;50.950;5.346;2023-02-11T11:01:05;95.07;;;33.95;;
33902;SDS011;20194;50.950;5.346;2023-02-11T11:03:36;100.93;;;36.38;;
33902;SDS011;20194;50.950;5.346;2023-02-11T11:06:09;90.90;;;33.17;;
33902;SDS011;20194;50.950;5.346;2023-02-11T11:11:18;97.47;;;36.85;;
33902;SDS011;20194;50.950;5.346;2023-02-11T11:21:35;84.68;;;32.85;;
33902;SDS011;20194;50.950;5.346;2023-02-11T11:24:05;78.97;;;31.83;;
33902;SDS011;20194;50.950;5.346;2023-02-11T11:26:54;81.35;;;33.42;;
33902;SDS011;20194;50.950;5.346;2023-02-11T11:32:26;85.38;;;32.20;;
33902;SDS011;20194;50.950;5.346;2023-02-11T11:34:52;82.65;;;29.48;;
33902;SDS011;20194;50.950;5.346;2023-02-11T11:37:27;88.78;;;31.48;;
33902;SDS011;20194;50.950;5.346;2023-02-11T11:39:56;85.20;;;30.08;;
33902;SDS011;20194;50.950;5.346;2023-02-11T11:42:33;83.38;;;31.15;;
33902;SDS011;20194;50.950;5.346;2023-02-11T11:55:40;81.55;;;31.13;;
33902;SDS011;20194;50.950;5.346;2023-02-11T11:58:11;85.43;;;31.75;;
33902;SDS011;20194;50.950;5.346;2023-02-11T12:06:20;86.07;;;32.10;;
33902;SDS011;20194;50.950;5.346;2023-02-11T12:11:51;83.47;;;31.08;;
33902;SDS011;20194;50.950;5.346;2023-02-11T12:20:11;86.32;;;30.85;;
33902;SDS011;20194;50.950;5.346;2023-02-11T12:31:05;89.25;;;32.53;;
33902;SDS011;20194;50.950;5.346;2023-02-11T12:36:24;88.07;;;31.27;;
33902;SDS011;20194;50.950;5.346;2023-02-11T12:45:16;83.10;;;31.52;;
33902;SDS011;20194;50.950;5.346;2023-02-11T12:59:43;98.32;;;31.48;;
33902;SDS011;20194;50.950;5.346;2023-02-11T13:05:03;89.20;;;32.50;;
33902;SDS011;20194;50.950;5.346;2023-02-11T13:07:42;91.38;;;31.92;;
33902;SDS011;20194;50.950;5.346;2023-02-11T13:12:39;89.78;;;31.17;;
33902;SDS011;20194;50.950;5.346;2023-02-11T13:15:27;86.10;;;31.63;;
33902;SDS011;20194;50.950;5.346;2023-02-11T13:20:54;84.93;;;31.80;;
33902;SDS011;20194;50.950;5.346;2023-02-11T13:29:42;71.90;;;31.77;;
33902;SDS011;20194;50.950;5.346;2023-02-11T13:32:20;80.75;;;31.45;;
33902;SDS011;20194;50.950;5.346;2023-02-11T13:42:47;81.03;;;30.55;;
33902;SDS011;20194;50.950;5.346;2023-02-11T13:47:57;83.35;;;31.15;;
33902;SDS011;20194;50.950;5.346;2023-02-11T13:50:24;82.38;;;30.88;;
33902;SDS011;20194;50.950;5.346;2023-02-11T13:52:57;80.97;;;32.75;;
33902;SDS011;20194;50.950;5.346;2023-02-11T13:55:25;78.88;;;30.42;;
33902;SDS011;20194;50.950;5.346;2023-02-11T14:16:15;73.47;;;29.65;;
33902;SDS011;20194;50.950;5.346;2023-02-11T14:23:43;96.68;;;34.00;;
33902;SDS011;20194;50.950;5.346;2023-02-11T14:28:51;79.32;;;31.95;;
33902;SDS011;20194;50.950;5.346;2023-02-11T14:31:26;86.05;;;31.60;;
33902;SDS011;20194;50.950;5.346;2023-02-11T14:42:14;76.55;;;29.23;;
33902;SDS011;20194;50.950;5.346;2023-02-11T14:44:44;72.00;;;28.75;;
33902;SDS011;20194;50.950;5.346;2023-02-11T14:47:16;73.93;;;28.95;;
33902;SDS011;20194;50.950;5.346;2023-02-11T14:49:44;75.53;;;29.40;;
33902;SDS011;20194;50.950;5.346;2023-02-11T14:52:20;72.57;;;27.75;;
33902;SDS011;20194;50.950;5.346;2023-02-11T14:54:56;72.35;;;29.20;;
33902;SDS011;20194;50.950;5.346;2023-02-11T14:57:38;77.07;;;29.13;;
33902;SDS011;20194;50.950;5.346;2023-02-11T15:00:21;75.38;;;29.67;;
33902;SDS011;20194;50.950;5.346;2023-02-11T15:02:47;72.22;;;29.35;;
33902;SDS011;20194;50.950;5.346;2023-02-11T15:05:24;74.50;;;30.13;;
33902;SDS011;20194;50.950;5.346;2023-02-11T15:07:59;70.07;;;28.92;;
33902;SDS011;20194;50.950;5.346;2023-02-11T15:10:31;74.40;;;29.40;;
33902;SDS011;20194;50.950;5.346;2023-02-11T15:13:00;75.38;;;29.88;;
33902;SDS011;20194;50.950;5.346;2023-02-11T15:15:27;77.68;;;29.50;;
33902;SDS011;20194;50.950;5.346;2023-02-11T15:17:55;62.60;;;29.42;;
33902;SDS011;20194;50.950;5.346;2023-02-11T15:20:25;76.60;;;30.88;;
33902;SDS011;20194;50.950;5.346;2023-02-11T15:22:54;70.13;;;30.33;;
33902;SDS011;20194;50.950;5.346;2023-02-11T15:25:25;74.45;;;29.00;;
33902;SDS011;20194;50.950;5.346;2023-02-11T15:27:53;76.00;;;29.38;;
33902;SDS011;20194;50.950;5.346;2023-02-11T15:32:53;74.15;;;29.35;;
33902;SDS011;20194;50.950;5.346;2023-02-11T15:35:27;72.60;;;29.27;;
33902;SDS011;20194;50.950;5.346;2023-02-11T15:37:56;68.57;;;28.85;;
33902;SDS011;20194;50.950;5.346;2023-02-11T15:40:25;76.90;;;29.35;;
33902;SDS011;20194;50.950;5.346;2023-02-11T15:42:54;72.35;;;30.73;;
33902;SDS011;20194;50.950;5.346;2023-02-11T15:48:41;82.80;;;30.23;;
33902;SDS011;20194;50.950;5.346;2023-02-11T15:51:10;69.68;;;29.70;;
33902;SDS011;20194;50.950;5.346;2023-02-11T15:53:37;73.18;;;29.95;;
33902;SDS011;20194;50.950;5.346;2023-02-11T15:56:09;71.50;;;30.48;;
33902;SDS011;20194;50.950;5.346;2023-02-11T15:58:37;76.82;;;32.08;;
33902;SDS011;20194;50.950;5.346;2023-02-11T16:01:04;68.30;;;28.50;;
33902;SDS011;20194;50.950;5.346;2023-02-11T16:03:31;68.47;;;30.10;;
33902;SDS011;20194;50.950;5.346;2023-02-11T16:11:52;77.85;;;32.30;;
33902;SDS011;20194;50.950;5.346;2023-02-11T16:14:21;79.67;;;33.47;;
33902;SDS011;20194;50.950;5.346;2023-02-11T16:17:10;72.45;;;30.83;;
33902;SDS011;20194;50.950;5.346;2023-02-11T16:19:46;70.22;;;29.40;;
33902;SDS011;20194;50.950;5.346;2023-02-11T16:22:15;74.20;;;29.27;;
33902;SDS011;20194;50.950;5.346;2023-02-11T16:24:48;78.90;;;29.52;;
33902;SDS011;20194;50.950;5.346;2023-02-11T16:29:54;68.47;;;29.35;;
33902;SDS011;20194;50.950;5.346;2023-02-11T16:32:22;78.18;;;31.80;;
33902;SDS011;20194;50.950;5.346;2023-02-11T16:34:51;80.05;;;32.60;;
33902;SDS011;20194;50.950;5.346;2023-02-11T16:37:17;69.60;;;31.40;;
33902;SDS011;20194;50.950;5.346;2023-02-11T16:39:43;71.60;;;30.88;;
33902;SDS011;20194;50.950;5.346;2023-02-11T16:42:10;81.43;;;32.33;;
33902;SDS011;20194;50.950;5.346;2023-02-11T16:44:36;73.82;;;30.25;;
33902;SDS011;20194;50.950;5.346;2023-02-11T16:47:02;74.38;;;28.98;;
33902;SDS011;20194;50.950;5.346;2023-02-11T16:49:39;76.10;;;30.45;;
33902;SDS011;20194;50.950;5.346;2023-02-11T16:52:07;81.03;;;31.33;;
33902;SDS011;20194;50.950;5.346;2023-02-11T16:54:37;67.55;;;29.30;;
33902;SDS011;20194;50.950;5.346;2023-02-11T16:57:16;74.63;;;31.55;;
33902;SDS011;20194;50.950;5.346;2023-02-11T16:59:46;82.70;;;31.98;;
33902;SDS011;20194;50.950;5.346;2023-02-11T17:02:14;82.55;;;32.67;;
33902;SDS011;20194;50.950;5.346;2023-02-11T17:04:44;81.72;;;31.98;;
33902;SDS011;20194;50.950;5.346;2023-02-11T17:07:10;67.38;;;29.52;;
33902;SDS011;20194;50.950;5.346;2023-02-11T17:09:37;64.53;;;30.20;;
33902;SDS011;20194;50.950;5.346;2023-02-11T17:12:03;67.57;;;31.52;;
33902;SDS011;20194;50.950;5.346;2023-02-11T17:14:28;69.93;;;30.58;;
33902;SDS011;20194;50.950;5.346;2023-02-11T17:16:54;71.13;;;30.90;;
33902;SDS011;20194;50.950;5.346;2023-02-11T17:19:21;71.75;;;31.80;;
33902;SDS011;20194;50.950;5.346;2023-02-11T17:21:47;72.13;;;30.45;;
33902;SDS011;20194;50.950;5.346;2023-02-11T17:24:15;77.68;;;30.63;;
33902;SDS011;20194;50.950;5.346;2023-02-11T17:26:42;69.60;;;31.05;;
33902;SDS011;20194;50.950;5.346;2023-02-11T17:29:11;73.88;;;29.77;;
33902;SDS011;20194;50.950;5.346;2023-02-11T17:31:39;73.95;;;31.02;;
33902;SDS011;20194;50.950;5.346;2023-02-11T17:34:05;79.78;;;33.35;;
33902;SDS011;20194;50.950;5.346;2023-02-11T17:36:31;73.15;;;31.90;;
33902;SDS011;20194;50.950;5.346;2023-02-11T17:38:57;75.85;;;31.08;;
33902;SDS011;20194;50.950;5.346;2023-02-11T17:41:24;75.93;;;31.52;;
33902;SDS011;20194;50.950;5.346;2023-02-11T17:43:50;74.22;;;32.45;;
33902;SDS011;20194;50.950;5.346;2023-02-11T17:46:16;77.78;;;31.08;;